Time;durP1;ratioP1;P1;durP2;ratioP2;P2;SDS_P1;SDS_P2;PMS_P1;PMS_P2;Temp;Humidity;BMP_temperature;BMP_pressure;BME280_temperature;BME280_humidity;BME280_pressure;Samples;Min_cycle;Max_cycle;Signal;HPM_P1;HPM_P2
2023/07/07 00:00:20;;;;;;;;;;;17.30;99.90;;;;;;7329573;19;109090;-67
2023/07/07 00:02:47;;;;;;;;;;;17.30;99.90;;;;;;7332299;19;109715;-67
2023/07/07 00:05:14;;;;;;;;;;;17.30;99.90;;;;;;7329972;19;110382;-67
2023/07/07 00:07:44;;;;;;;;;;;17.20;99.90;;;;;;7331751;19;109447;-67
2023/07/07 00:10:11;;;;;;;;;;;17.20;99.90;;;;;;7332808;19;108607;-67
2023/07/07 00:12:38;;;;;;;;;;;17.20;99.90;;;;;;7329250;19;109222;-67
2023/07/07 00:15:06;;;;;;;;;;;17.20;99.90;;;;;;7336388;19;109575;-67
2023/07/07 00:17:33;;;;;;;;;;;17.10;99.90;;;;;;7328588;19;112390;-67
2023/07/07 00:20:07;;;;;;;;;;;17.20;99.90;;;;;;7325716;19;109856;-67
2023/07/07 00:22:35;;;;;;;;;;;17.10;99.90;;;;;;7331668;19;109221;-67
2023/07/07 00:25:02;;;;;;;;;;;17.10;99.90;;;;;;7339007;19;109046;-67
2023/07/07 00:27:29;;;;;;;;;;;17.00;99.90;;;;;;7337061;19;109187;-67
2023/07/07 00:29:57;;;;;;;;;;;17.00;99.90;;;;;;7334027;19;108446;-68
2023/07/07 00:32:24;;;;;;;;;;;17.00;99.90;;;;;;7337401;19;108884;-67
2023/07/07 00:34:51;;;;;;;;;;;16.90;99.90;;;;;;7336662;19;109468;-67
2023/07/07 00:37:18;;;;;;;;;;;16.90;99.90;;;;;;7336780;19;110933;-67
2023/07/07 00:39:45;;;;;;;;;;;16.90;99.90;;;;;;7337586;19;109237;-67
2023/07/07 00:42:12;;;;;;;;;;;16.90;99.90;;;;;;7334319;19;109293;-67
2023/07/07 00:44:58;;;;;;;;;;;16.80;99.90;;;;;;7339123;19;108905;-67
2023/07/07 00:47:25;;;;;;;;;;;16.80;99.90;;;;;;7336648;19;110162;-67
2023/07/07 00:49:52;;;;;;;;;;;16.70;99.90;;;;;;7334991;19;108961;-67
2023/07/07 00:52:19;;;;;;;;;;;16.70;99.90;;;;;;7338636;19;110462;-67
2023/07/07 00:54:46;;;;;;;;;;;16.70;99.90;;;;;;7337236;19;109122;-67
2023/07/07 00:57:13;;;;;;;;;;;16.60;99.90;;;;;;7341010;19;109484;-67
2023/07/07 00:59:42;;;;;;;;;;;16.60;99.90;;;;;;7337974;19;109396;-67
2023/07/07 01:02:12;;;;;;;;;;;16.50;99.90;;;;;;7334039;19;109363;-66
2023/07/07 01:04:41;;;;;;;;;;;16.50;99.90;;;;;;7334643;19;108770;-70
2023/07/07 01:07:13;;;;;;;;;;;16.50;99.90;;;;;;7331814;19;111068;-67
2023/07/07 01:09:40;;;;;;;;;;;16.50;99.90;;;;;;7335824;19;108755;-69
2023/07/07 01:12:11;;;;;;;;;;;16.40;99.90;;;;;;7337733;19;109121;-69
2023/07/07 01:14:39;;;;;;;;;;;16.30;99.90;;;;;;7333067;19;109475;-67
2023/07/07 01:17:06;;;;;;;;;;;16.40;99.90;;;;;;7334907;19;109279;-65
2023/07/07 01:19:44;;;;;;;;;;;16.30;99.90;;;;;;7341969;19;109172;-67
2023/07/07 01:22:30;;;;;;;;;;;16.30;99.90;;;;;;7339592;19;108599;-67
2023/07/07 01:25:17;;;;;;;;;;;16.20;99.90;;;;;;7337451;19;108489;-66
2023/07/07 01:27:47;;;;;;;;;;;16.20;99.90;;;;;;7335203;19;109932;-65
2023/07/07 01:30:44;;;;;;;;;;;16.20;99.90;;;;;;7334826;19;108641;-66
2023/07/07 01:33:13;;;;;;;;;;;16.20;99.90;;;;;;7330197;19;109250;-67
2023/07/07 01:35:40;;;;;;;;;;;16.20;99.90;;;;;;7332310;19;110626;-67
2023/07/07 01:38:27;;;;;;;;;;;16.20;99.90;;;;;;7337622;19;109539;-66
2023/07/07 01:41:01;;;;;;;;;;;16.10;99.90;;;;;;7332802;19;109788;-66
2023/07/07 01:43:35;;;;;;;;;;;16.10;99.90;;;;;;7341040;19;114498;-67
2023/07/07 01:46:07;;;;;;;;;;;16.10;99.90;;;;;;7335523;19;108897;-67
2023/07/07 01:48:34;;;;;;;;;;;16.10;99.90;;;;;;7336212;19;109413;-69
2023/07/07 01:51:02;;;;;;;;;;;16.10;99.90;;;;;;7329561;19;109263;-69
2023/07/07 01:53:32;;;;;;;;;;;16.00;99.90;;;;;;7338491;19;108950;-66
2023/07/07 01:56:00;;;;;;;;;;;16.00;99.90;;;;;;7339350;19;110310;-66
2023/07/07 01:58:32;;;;;;;;;;;16.00;99.90;;;;;;7336013;19;109945;-68
2023/07/07 02:01:00;;;;;;;;;;;16.00;99.90;;;;;;7334247;19;108972;-66
2023/07/07 02:03:27;;;;;;;;;;;16.00;99.90;;;;;;7333915;19;112224;-66
2023/07/07 02:05:54;;;;;;;;;;;16.00;99.90;;;;;;7340474;19;111940;-69
2023/07/07 02:08:21;;;;;;;;;;;16.00;99.90;;;;;;7332137;19;109133;-66
2023/07/07 02:10:49;;;;;;;;;;;15.90;99.90;;;;;;7337833;19;109169;-67
2023/07/07 02:13:16;;;;;;;;;;;15.90;99.90;;;;;;7331780;19;110078;-69
2023/07/07 02:15:43;;;;;;;;;;;15.90;99.90;;;;;;7332263;19;111767;-67
2023/07/07 02:18:10;;;;;;;;;;;15.90;99.90;;;;;;7333369;19;109171;-69
2023/07/07 02:20:38;;;;;;;;;;;15.80;99.90;;;;;;7337733;19;109982;-70
2023/07/07 02:23:05;;;;;;;;;;;15.80;99.90;;;;;;7333862;19;109190;-69
2023/07/07 02:25:32;;;;;;;;;;;15.80;99.90;;;;;;7334262;19;109045;-74
2023/07/07 02:27:59;;;;;;;;;;;15.80;99.90;;;;;;7340851;19;109596;-76
2023/07/07 02:30:26;;;;;;;;;;;15.70;99.90;;;;;;7334224;19;108876;-74
2023/07/07 02:32:53;;;;;;;;;;;15.70;99.90;;;;;;7336212;19;108852;-71
2023/07/07 02:35:20;;;;;;;;;;;15.70;99.90;;;;;;7334917;19;110210;-71
2023/07/07 02:40:29;;;;;;;;;;;15.70;99.90;;;;;;7329009;19;110628;-67
2023/07/07 02:42:56;;;;;;;;;;;15.60;99.90;;;;;;7337287;19;109151;-66
2023/07/07 02:45:23;;;;;;;;;;;15.60;99.90;;;;;;7331918;19;108994;-67
2023/07/07 02:47:50;;;;;;;;;;;15.60;99.90;;;;;;7334876;19;108536;-69
2023/07/07 02:50:18;;;;;;;;;;;15.50;99.90;;;;;;7340851;19;110162;-67
2023/07/07 02:52:45;;;;;;;;;;;15.50;99.90;;;;;;7330206;19;108535;-68
2023/07/07 02:55:12;;;;;;;;;;;15.50;99.90;;;;;;7331323;19;110296;-68
2023/07/07 02:57:40;;;;;;;;;;;15.50;99.90;;;;;;7331521;19;108905;-68
2023/07/07 03:00:09;;;;;;;;;;;15.50;99.90;;;;;;7331580;19;109800;-68
2023/07/07 03:02:36;;;;;;;;;;;15.50;99.90;;;;;;7332431;19;110498;-68
2023/07/07 03:05:03;;;;;;;;;;;15.50;99.90;;;;;;7331734;19;110731;-68
2023/07/07 03:07:31;;;;;;;;;;;15.50;99.90;;;;;;7335281;19;109326;-68
2023/07/07 03:09:58;;;;;;;;;;;15.50;99.90;;;;;;7337650;19;110272;-68
2023/07/07 03:12:25;;;;;;;;;;;15.50;99.90;;;;;;7335981;19;109909;-68
2023/07/07 03:14:53;;;;;;;;;;;15.40;99.90;;;;;;7328664;19;109118;-68
2023/07/07 03:17:20;;;;;;;;;;;15.40;99.90;;;;;;7333387;19;109369;-67
2023/07/07 03:19:47;;;;;;;;;;;15.40;99.90;;;;;;7331232;19;109351;-68
2023/07/07 03:22:14;;;;;;;;;;;15.40;99.90;;;;;;7334585;19;109157;-68
2023/07/07 03:24:41;;;;;;;;;;;15.40;99.90;;;;;;7331188;19;108835;-68
2023/07/07 03:27:09;;;;;;;;;;;15.40;99.90;;;;;;7334608;19;109759;-69
2023/07/07 03:29:36;;;;;;;;;;;15.40;99.90;;;;;;7328312;19;109631;-68
2023/07/07 03:32:03;;;;;;;;;;;15.30;99.90;;;;;;7339648;19;110186;-68
2023/07/07 03:34:30;;;;;;;;;;;15.30;99.90;;;;;;7331049;19;109119;-68
2023/07/07 03:36:57;;;;;;;;;;;15.30;99.90;;;;;;7332763;19;109851;-67
2023/07/07 03:39:24;;;;;;;;;;;15.30;99.90;;;;;;7328175;19;109685;-68
2023/07/07 03:41:51;;;;;;;;;;;15.30;99.90;;;;;;7332224;19;109955;-67
2023/07/07 03:44:18;;;;;;;;;;;15.30;99.90;;;;;;7329078;19;111245;-68
2023/07/07 03:46:45;;;;;;;;;;;15.30;99.90;;;;;;7333952;19;108585;-68
2023/07/07 03:49:12;;;;;;;;;;;15.30;99.90;;;;;;7327518;19;109144;-68
2023/07/07 03:51:39;;;;;;;;;;;15.30;99.90;;;;;;7330733;19;108887;-71
2023/07/07 03:54:06;;;;;;;;;;;15.30;99.90;;;;;;7330438;19;109532;-72
2023/07/07 03:56:33;;;;;;;;;;;15.30;99.90;;;;;;7333588;19;109036;-70
2023/07/07 03:59:00;;;;;;;;;;;15.30;99.90;;;;;;7334144;19;108787;-70
2023/07/07 04:01:28;;;;;;;;;;;15.30;99.90;;;;;;7338256;19;110429;-70
2023/07/07 04:03:55;;;;;;;;;;;15.30;99.90;;;;;;7337142;19;108685;-70
2023/07/07 04:06:23;;;;;;;;;;;15.30;99.90;;;;;;7335252;19;109050;-71
2023/07/07 04:08:50;;;;;;;;;;;15.30;99.90;;;;;;7338583;19;109342;-71
2023/07/07 04:11:19;;;;;;;;;;;15.30;99.90;;;;;;7338530;19;110044;-71
2023/07/07 04:13:47;;;;;;;;;;;15.30;99.90;;;;;;7339659;19;110077;-71
2023/07/07 04:16:17;;;;;;;;;;;15.40;99.90;;;;;;7341891;19;109312;-70
2023/07/07 04:18:45;;;;;;;;;;;15.40;99.90;;;;;;7339355;19;109422;-70
2023/07/07 04:21:13;;;;;;;;;;;15.30;99.90;;;;;;7336336;19;110595;-71
2023/07/07 04:23:42;;;;;;;;;;;15.30;99.90;;;;;;7336464;19;109951;-70
2023/07/07 04:26:10;;;;;;;;;;;15.30;99.90;;;;;;7336774;19;108684;-70
2023/07/07 04:28:37;;;;;;;;;;;15.30;99.90;;;;;;7339203;19;109924;-70
2023/07/07 04:31:05;;;;;;;;;;;15.40;99.90;;;;;;7339399;19;108879;-71
2023/07/07 04:33:35;;;;;;;;;;;15.50;99.90;;;;;;7337762;19;108741;-70
2023/07/07 04:36:04;;;;;;;;;;;15.40;99.90;;;;;;7334642;19;110102;-70
2023/07/07 04:38:32;;;;;;;;;;;15.50;99.90;;;;;;7344331;19;109562;-70
2023/07/07 04:41:18;;;;;;;;;;;15.50;99.90;;;;;;7337240;19;109942;-70
2023/07/07 04:43:48;;;;;;;;;;;15.50;99.90;;;;;;7339382;19;108766;-70
2023/07/07 04:46:26;;;;;;;;;;;15.50;99.90;;;;;;7339336;19;109775;-69
2023/07/07 04:48:53;;;;;;;;;;;15.50;99.90;;;;;;7331718;19;109471;-71
2023/07/07 04:51:20;;;;;;;;;;;15.50;99.90;;;;;;7338456;19;109295;-71
2023/07/07 04:53:47;;;;;;;;;;;15.50;99.90;;;;;;7335490;19;108777;-71
2023/07/07 04:56:19;;;;;;;;;;;15.50;99.90;;;;;;7337381;19;109429;-71
2023/07/07 04:58:48;;;;;;;;;;;15.60;99.90;;;;;;7334038;19;110109;-71
2023/07/07 05:01:20;;;;;;;;;;;15.70;99.90;;;;;;7340811;19;108721;-71
2023/07/07 05:03:52;;;;;;;;;;;15.70;99.90;;;;;;7338578;19;108773;-70
2023/07/07 05:06:20;;;;;;;;;;;15.70;99.90;;;;;;7337534;19;110971;-71
2023/07/07 05:08:48;;;;;;;;;;;15.80;99.90;;;;;;7337566;19;109399;-71
2023/07/07 05:11:17;;;;;;;;;;;15.90;99.90;;;;;;7336791;19;109391;-70
2023/07/07 05:13:46;;;;;;;;;;;15.90;99.90;;;;;;7338036;19;110096;-70
2023/07/07 05:16:15;;;;;;;;;;;16.00;99.90;;;;;;7332077;19;109942;-70
2023/07/07 05:18:42;;;;;;;;;;;16.10;99.90;;;;;;7336937;19;110007;-69
2023/07/07 05:21:10;;;;;;;;;;;16.20;99.90;;;;;;7338013;19;110897;-70
2023/07/07 05:23:37;;;;;;;;;;;16.20;99.90;;;;;;7337709;19;108555;-70
2023/07/07 05:26:05;;;;;;;;;;;16.30;99.90;;;;;;7337574;19;110427;-70
2023/07/07 05:28:32;;;;;;;;;;;16.50;99.90;;;;;;7337419;19;109155;-70
2023/07/07 05:30:59;;;;;;;;;;;16.50;99.90;;;;;;7334004;19;110104;-70
2023/07/07 05:33:30;;;;;;;;;;;16.60;99.90;;;;;;7336595;19;109513;-71
2023/07/07 05:36:01;;;;;;;;;;;16.70;99.90;;;;;;7335007;19;109147;-71
2023/07/07 05:38:28;;;;;;;;;;;16.80;99.90;;;;;;7335604;19;108465;-72
2023/07/07 05:40:56;;;;;;;;;;;16.90;99.90;;;;;;7334738;19;109849;-72
2023/07/07 05:43:24;;;;;;;;;;;17.00;99.90;;;;;;7341029;19;109639;-72
2023/07/07 05:45:56;;;;;;;;;;;17.10;99.90;;;;;;7332618;19;110514;-71
2023/07/07 05:48:24;;;;;;;;;;;17.20;99.90;;;;;;7336419;19;110123;-70
2023/07/07 05:50:51;;;;;;;;;;;17.20;99.90;;;;;;7333248;19;109280;-69
2023/07/07 05:53:18;;;;;;;;;;;17.30;99.90;;;;;;7336596;19;108659;-69
2023/07/07 05:55:48;;;;;;;;;;;17.50;99.90;;;;;;7333809;19;109143;-70
2023/07/07 05:58:16;;;;;;;;;;;17.60;99.90;;;;;;7332614;19;108628;-69
2023/07/07 06:00:44;;;;;;;;;;;17.60;99.90;;;;;;7334362;19;110126;-70
2023/07/07 06:03:11;;;;;;;;;;;17.70;99.90;;;;;;7332910;19;110138;-71
2023/07/07 06:05:39;;;;;;;;;;;17.70;99.90;;;;;;7341356;19;109013;-71
2023/07/07 06:08:07;;;;;;;;;;;17.90;99.90;;;;;;7332807;19;110637;-70
2023/07/07 06:10:34;;;;;;;;;;;17.90;99.90;;;;;;7336458;19;108995;-71
2023/07/07 06:13:02;;;;;;;;;;;18.10;99.90;;;;;;7333276;19;109459;-70
2023/07/07 06:15:29;;;;;;;;;;;18.10;99.90;;;;;;7335728;19;110645;-70
2023/07/07 06:17:57;;;;;;;;;;;18.20;99.90;;;;;;7331994;19;109139;-70
2023/07/07 06:20:27;;;;;;;;;;;18.30;99.90;;;;;;7333207;19;108818;-70
2023/07/07 06:22:57;;;;;;;;;;;18.40;99.90;;;;;;7334321;19;110037;-69
2023/07/07 06:25:24;;;;;;;;;;;18.60;99.90;;;;;;7334143;19;109024;-69
2023/07/07 06:27:51;;;;;;;;;;;18.70;99.90;;;;;;7339981;19;109523;-68
2023/07/07 06:30:18;;;;;;;;;;;18.70;99.90;;;;;;7333244;19;108874;-68
2023/07/07 06:32:45;;;;;;;;;;;18.90;99.90;;;;;;7336051;19;108227;-69
2023/07/07 06:35:13;;;;;;;;;;;19.00;99.90;;;;;;7336541;19;110786;-68
2023/07/07 06:37:40;;;;;;;;;;;19.20;99.90;;;;;;7334287;19;108451;-68
2023/07/07 06:40:07;;;;;;;;;;;19.30;99.90;;;;;;7329109;19;108616;-70
2023/07/07 06:42:34;;;;;;;;;;;19.30;99.90;;;;;;7333480;19;109983;-68
2023/07/07 06:45:01;;;;;;;;;;;19.50;99.90;;;;;;7335007;19;108365;-69
2023/07/07 06:47:29;;;;;;;;;;;19.60;99.90;;;;;;7336669;19;109584;-65
2023/07/07 06:49:56;;;;;;;;;;;19.70;99.90;;;;;;7339992;19;111000;-69
2023/07/07 06:52:23;;;;;;;;;;;19.90;99.90;;;;;;7332859;19;109072;-69
2023/07/07 06:54:50;;;;;;;;;;;20.00;99.90;;;;;;7335819;19;108908;-68
2023/07/07 06:57:17;;;;;;;;;;;20.10;99.90;;;;;;7332151;19;108589;-71
2023/07/07 06:59:44;;;;;;;;;;;20.20;99.90;;;;;;7336342;19;108644;-69
2023/07/07 07:02:12;;;;;;;;;;;20.30;99.90;;;;;;7332508;19;110186;-68
2023/07/07 07:04:40;;;;;;;;;;;20.40;99.90;;;;;;7337345;19;108410;-69
2023/07/07 07:07:08;;;;;;;;;;;20.50;99.90;;;;;;7332301;19;109034;-69
2023/07/07 07:09:36;;;;;;;;;;;20.60;99.90;;;;;;7332252;19;109556;-69
2023/07/07 07:12:03;;;;;;;;;;;20.70;99.90;;;;;;7337160;19;108662;-69
2023/07/07 07:14:30;;;;;;;;;;;20.90;99.90;;;;;;7332849;19;108941;-68
2023/07/07 07:16:57;;;;;;;;;;;21.00;99.90;;;;;;7334560;19;108746;-69
2023/07/07 07:19:24;;;;;;;;;;;21.10;99.90;;;;;;7334108;19;109192;-69
2023/07/07 07:21:51;;;;;;;;;;;21.10;99.90;;;;;;7333176;19;109118;-69
2023/07/07 07:24:19;;;;;;;;;;;21.30;99.90;;;;;;7331701;19;109503;-69
2023/07/07 07:26:46;;;;;;;;;;;21.40;99.90;;;;;;7334596;19;108512;-69
2023/07/07 07:29:14;;;;;;;;;;;21.60;99.90;;;;;;7332755;19;109488;-69
2023/07/07 07:31:43;;;;;;;;;;;21.60;99.90;;;;;;7336369;19;108475;-69
2023/07/07 07:34:26;;;;;;;;;;;21.70;99.90;;;;;;7328671;19;110129;-68
2023/07/07 07:36:54;;;;;;;;;;;21.90;99.90;;;;;;7333245;19;109419;-69
2023/07/07 07:39:21;;;;;;;;;;;22.00;99.90;;;;;;7331686;19;109574;-68
2023/07/07 07:41:49;;;;;;;;;;;22.10;99.90;;;;;;7329971;19;111327;-69
2023/07/07 07:44:17;;;;;;;;;;;22.20;99.90;;;;;;7324117;19;109354;-69
2023/07/07 07:46:46;;;;;;;;;;;22.30;99.90;;;;;;7322351;19;109591;-69
2023/07/07 07:49:13;;;;;;;;;;;22.40;99.90;;;;;;7315755;19;109906;-69
2023/07/07 07:51:41;;;;;;;;;;;22.60;99.90;;;;;;7328041;19;109142;-69
2023/07/07 07:54:10;;;;;;;;;;;22.70;99.90;;;;;;7326118;19;109927;-69
2023/07/07 07:56:38;;;;;;;;;;;22.70;99.90;;;;;;7325749;19;110361;-69
2023/07/07 07:59:05;;;;;;;;;;;22.90;99.90;;;;;;7333790;19;109365;-68
2023/07/07 08:01:33;;;;;;;;;;;23.00;99.90;;;;;;7332216;19;109401;-68
2023/07/07 08:04:01;;;;;;;;;;;23.10;99.90;;;;;;7334663;19;108974;-68
2023/07/07 08:06:29;;;;;;;;;;;23.20;99.90;;;;;;7331116;19;108554;-68
2023/07/07 08:08:56;;;;;;;;;;;23.40;99.90;;;;;;7331197;19;109179;-68
2023/07/07 08:11:46;;;;;;;;;;;23.40;99.90;;;;;;7329171;19;108799;-68
2023/07/07 08:14:14;;;;;;;;;;;23.50;99.90;;;;;;7331243;19;108666;-68
2023/07/07 08:16:42;;;;;;;;;;;23.60;99.90;;;;;;7339985;19;110634;-68
2023/07/07 08:19:09;;;;;;;;;;;23.70;99.90;;;;;;7332712;19;108852;-69
2023/07/07 08:21:36;;;;;;;;;;;23.80;99.90;;;;;;7330897;19;109694;-68
2023/07/07 08:24:05;;;;;;;;;;;23.90;99.90;;;;;;7332972;19;113061;-69
2023/07/07 08:26:33;;;;;;;;;;;24.00;99.90;;;;;;7334595;19;109145;-69
2023/07/07 08:29:02;;;;;;;;;;;24.10;99.90;;;;;;7332108;19;109449;-68
2023/07/07 08:31:30;;;;;;;;;;;24.30;99.90;;;;;;7332823;19;108390;-68
2023/07/07 08:33:57;;;;;;;;;;;24.30;99.90;;;;;;7332869;19;109841;-67
2023/07/07 08:36:28;;;;;;;;;;;24.40;99.90;;;;;;7330385;19;109253;-68
2023/07/07 08:39:00;;;;;;;;;;;24.50;99.90;;;;;;7336913;19;111551;-68
2023/07/07 08:41:28;;;;;;;;;;;24.60;99.90;;;;;;7332663;19;110187;-69
2023/07/07 08:43:55;;;;;;;;;;;24.70;99.90;;;;;;7334673;19;108598;-68
2023/07/07 08:46:22;;;;;;;;;;;24.80;99.90;;;;;;7337293;19;109931;-68
2023/07/07 08:48:52;;;;;;;;;;;25.00;99.90;;;;;;7339728;19;109980;-68
2023/07/07 08:51:23;;;;;;;;;;;25.10;99.00;;;;;;7337988;19;110069;-68
2023/07/07 08:53:56;;;;;;;;;;;25.20;98.40;;;;;;7338685;19;109350;-67
2023/07/07 08:56:39;;;;;;;;;;;25.30;98.60;;;;;;7339361;19;110554;-67
2023/07/07 08:59:36;;;;;;;;;;;25.40;96.90;;;;;;7339134;19;109803;-68
2023/07/07 09:02:13;;;;;;;;;;;25.50;97.80;;;;;;7342573;19;110356;-69
2023/07/07 09:04:49;;;;;;;;;;;25.60;96.70;;;;;;7339315;19;108465;-68
2023/07/07 09:07:23;;;;;;;;;;;25.70;95.70;;;;;;7339292;19;108546;-68
2023/07/07 09:10:05;;;;;;;;;;;25.80;96.10;;;;;;7336085;19;109265;-68
2023/07/07 09:12:47;;;;;;;;;;;25.80;94.90;;;;;;7338273;19;109300;-68
2023/07/07 09:15:25;;;;;;;;;;;25.80;95.10;;;;;;7337628;19;108942;-68
2023/07/07 09:17:54;;;;;;;;;;;25.90;95.00;;;;;;7337336;19;110637;-69
2023/07/07 09:20:24;;;;;;;;;;;26.00;95.00;;;;;;7337489;19;108944;-68
2023/07/07 09:22:58;;;;;;;;;;;26.10;95.00;;;;;;7344215;19;109564;-68
2023/07/07 09:25:42;;;;;;;;;;;26.30;94.70;;;;;;7336739;19;109189;-68
2023/07/07 09:28:16;;;;;;;;;;;26.20;93.70;;;;;;7335562;19;108719;-68
2023/07/07 09:30:43;;;;;;;;;;;26.30;94.60;;;;;;7337846;19;109681;-69
2023/07/07 09:33:13;;;;;;;;;;;26.40;93.40;;;;;;7337574;19;108962;-67
2023/07/07 09:35:41;;;;;;;;;;;26.40;93.80;;;;;;7337962;19;108895;-67
2023/07/07 09:38:21;;;;;;;;;;;26.60;94.00;;;;;;7337332;19;109894;-67
2023/07/07 09:40:57;;;;;;;;;;;26.60;92.30;;;;;;7337079;19;108990;-67
2023/07/07 09:43:41;;;;;;;;;;;26.70;93.20;;;;;;7334001;19;109461;-67
2023/07/07 09:46:32;;;;;;;;;;;26.70;92.40;;;;;;7338509;19;109100;-67
2023/07/07 09:49:11;;;;;;;;;;;26.80;92.80;;;;;;7337906;19;108669;-67
2023/07/07 09:51:42;;;;;;;;;;;26.90;91.90;;;;;;7336983;19;110114;-67
2023/07/07 09:54:10;;;;;;;;;;;27.00;92.20;;;;;;7333568;19;109515;-67
2023/07/07 09:56:45;;;;;;;;;;;27.10;92.00;;;;;;7335474;19;109250;-67
2023/07/07 09:59:22;;;;;;;;;;;27.20;91.50;;;;;;7336275;19;109928;-67
2023/07/07 10:01:50;;;;;;;;;;;27.30;91.30;;;;;;7336209;19;108241;-67
2023/07/07 10:04:21;;;;;;;;;;;27.30;91.40;;;;;;7335697;19;108747;-67
2023/07/07 10:07:03;;;;;;;;;;;27.40;91.80;;;;;;7337085;19;110354;-67
2023/07/07 10:09:31;;;;;;;;;;;27.40;91.80;;;;;;7343041;19;108829;-69
2023/07/07 10:11:58;;;;;;;;;;;27.50;90.60;;;;;;7335090;19;109511;-67
2023/07/07 10:14:30;;;;;;;;;;;27.60;90.50;;;;;;7337585;19;109580;-67
2023/07/07 10:17:06;;;;;;;;;;;27.60;91.30;;;;;;7335511;19;108811;-67
2023/07/07 10:19:39;;;;;;;;;;;27.70;87.60;;;;;;7335695;19;109741;-66
2023/07/07 10:22:06;;;;;;;;;;;27.70;88.80;;;;;;7336396;19;108510;-66
2023/07/07 10:24:34;;;;;;;;;;;27.70;89.70;;;;;;7335668;19;110881;-68
2023/07/07 10:27:01;;;;;;;;;;;27.80;89.70;;;;;;7336061;19;109158;-66
2023/07/07 10:29:31;;;;;;;;;;;27.80;90.00;;;;;;7332345;19;109281;-67
2023/07/07 10:31:58;;;;;;;;;;;28.00;90.10;;;;;;7342422;19;109588;-67
2023/07/07 10:34:40;;;;;;;;;;;28.00;87.40;;;;;;7332484;19;110976;-66
2023/07/07 10:37:16;;;;;;;;;;;28.00;87.60;;;;;;7335721;19;108391;-67
2023/07/07 10:39:43;;;;;;;;;;;28.10;87.40;;;;;;7334148;19;110755;-67
2023/07/07 10:42:10;;;;;;;;;;;28.10;88.00;;;;;;7335751;19;108867;-67
2023/07/07 10:44:37;;;;;;;;;;;28.10;88.90;;;;;;7336562;19;108792;-66
2023/07/07 10:47:04;;;;;;;;;;;28.20;88.10;;;;;;7334865;19;109600;-67
2023/07/07 10:49:51;;;;;;;;;;;28.30;87.00;;;;;;7335149;19;109347;-67
2023/07/07 10:52:21;;;;;;;;;;;28.30;87.90;;;;;;7334723;19;110703;-67
2023/07/07 10:55:11;;;;;;;;;;;28.30;86.00;;;;;;7336306;19;109421;-67
2023/07/07 10:57:38;;;;;;;;;;;28.50;85.70;;;;;;7331112;19;108685;-63
2023/07/07 11:00:05;;;;;;;;;;;28.50;86.30;;;;;;7328688;19;109155;-59
2023/07/07 11:02:33;;;;;;;;;;;28.50;85.00;;;;;;7329558;19;110376;-70
2023/07/07 11:05:12;;;;;;;;;;;28.50;84.80;;;;;;7326989;19;109691;-69
2023/07/07 11:07:42;;;;;;;;;;;28.50;82.90;;;;;;7331841;19;109692;-70
2023/07/07 11:10:22;;;;;;;;;;;28.50;83.00;;;;;;7331361;19;109221;-70
2023/07/07 11:13:00;;;;;;;;;;;28.50;85.10;;;;;;7332858;19;109249;-70
2023/07/07 11:15:42;;;;;;;;;;;28.50;83.00;;;;;;7330420;19;109463;-69
2023/07/07 11:18:15;;;;;;;;;;;28.60;84.80;;;;;;7337493;19;109234;-72
2023/07/07 11:21:01;;;;;;;;;;;28.70;82.40;;;;;;7335040;19;109184;-71
2023/07/07 11:23:50;;;;;;;;;;;28.60;80.80;;;;;;7335499;19;109150;-73
2023/07/07 11:26:36;;;;;;;;;;;28.70;82.50;;;;;;7334123;19;109911;-71
2023/07/07 11:29:33;;;;;;;;;;;28.70;84.30;;;;;;7335149;19;109220;-74
2023/07/07 11:32:18;;;;;;;;;;;28.90;83.40;;;;;;7334421;19;109389;-70
2023/07/07 11:35:04;;;;;;;;;;;28.90;80.90;;;;;;7332362;19;110578;-70
2023/07/07 11:37:40;;;;;;;;;;;28.90;82.60;;;;;;7333399;19;110318;-72
2023/07/07 11:40:18;;;;;;;;;;;29.10;80.00;;;;;;7337552;19;109309;-70
2023/07/07 11:42:47;;;;;;;;;;;29.10;83.80;;;;;;7331023;19;109074;-69
2023/07/07 11:45:22;;;;;;;;;;;29.30;83.00;;;;;;7334910;19;108301;-71
2023/07/07 11:47:55;;;;;;;;;;;29.40;81.60;;;;;;7334057;19;108746;-70
2023/07/07 11:50:29;;;;;;;;;;;29.50;83.10;;;;;;7334013;19;110171;-72
2023/07/07 11:53:20;;;;;;;;;;;29.60;81.40;;;;;;7336067;19;108479;-71
2023/07/07 11:56:06;;;;;;;;;;;29.70;80.60;;;;;;7332562;19;108548;-71
2023/07/07 11:58:52;;;;;;;;;;;29.80;83.50;;;;;;7332980;19;109157;-71
2023/07/07 12:01:25;;;;;;;;;;;29.90;82.60;;;;;;7334761;19;108757;-70
2023/07/07 12:04:04;;;;;;;;;;;29.90;78.60;;;;;;7338123;19;112089;-70
2023/07/07 12:06:36;;;;;;;;;;;29.90;78.60;;;;;;7333617;19;108610;-73
2023/07/07 12:09:26;;;;;;;;;;;29.90;78.00;;;;;;7334783;19;108908;-72
2023/07/07 12:11:59;;;;;;;;;;;30.00;82.80;;;;;;7334475;19;112022;-72
2023/07/07 12:14:40;;;;;;;;;;;30.20;82.00;;;;;;7332208;19;109237;-71
2023/07/07 12:17:12;;;;;;;;;;;30.40;81.50;;;;;;7334723;19;109249;-72
2023/07/07 12:19:41;;;;;;;;;;;30.50;79.30;;;;;;7339763;19;110210;-72
2023/07/07 12:22:14;;;;;;;;;;;30.60;82.30;;;;;;7340777;19;108363;-71
2023/07/07 12:24:50;;;;;;;;;;;30.70;82.80;;;;;;7340929;19;108616;-71
2023/07/07 12:27:19;;;;;;;;;;;31.00;84.20;;;;;;7347489;19;109079;-73
2023/07/07 12:29:47;;;;;;;;;;;31.10;80.70;;;;;;7341788;19;109703;-71
2023/07/07 12:32:14;;;;;;;;;;;31.20;82.20;;;;;;7342302;19;109411;-72
2023/07/07 12:35:02;;;;;;;;;;;31.20;76.80;;;;;;7339567;19;109008;-72
2023/07/07 12:37:29;;;;;;;;;;;31.20;79.00;;;;;;7339230;19;109277;-73
2023/07/07 12:39:58;;;;;;;;;;;31.20;75.40;;;;;;7338419;19;109214;-72
2023/07/07 12:42:28;;;;;;;;;;;31.20;77.30;;;;;;7338024;19;108798;-73
2023/07/07 12:44:56;;;;;;;;;;;31.30;78.50;;;;;;7340711;19;108758;-72
2023/07/07 12:47:30;;;;;;;;;;;31.40;79.00;;;;;;7339055;19;109468;-71
2023/07/07 12:50:00;;;;;;;;;;;31.50;77.20;;;;;;7346881;19;109190;-73
2023/07/07 12:52:32;;;;;;;;;;;31.60;76.70;;;;;;7340555;19;109217;-71
2023/07/07 12:55:04;;;;;;;;;;;31.60;74.70;;;;;;7341384;19;109894;-73
2023/07/07 12:57:31;;;;;;;;;;;31.60;75.10;;;;;;7340070;19;108166;-74
2023/07/07 13:00:21;;;;;;;;;;;31.70;78.50;;;;;;7336130;19;128501;-74
2023/07/07 13:02:55;;;;;;;;;;;31.90;79.50;;;;;;7340697;19;109808;-75
2023/07/07 13:05:23;;;;;;;;;;;32.10;78.20;;;;;;7334324;19;110418;-73
2023/07/07 13:08:00;;;;;;;;;;;32.30;78.60;;;;;;7339705;19;109799;-69
2023/07/07 13:10:45;;;;;;;;;;;32.40;76.60;;;;;;7339492;19;109087;-74
2023/07/07 13:13:34;;;;;;;;;;;32.50;73.00;;;;;;7341011;19;108683;-74
2023/07/07 13:16:01;;;;;;;;;;;32.30;72.80;;;;;;7337340;19;109404;-72
2023/07/07 13:18:32;;;;;;;;;;;32.20;74.20;;;;;;7338654;19;110567;-72
2023/07/07 13:20:59;;;;;;;;;;;32.20;71.80;;;;;;7337891;19;109118;-72
2023/07/07 13:23:39;;;;;;;;;;;32.20;74.20;;;;;;7341108;19;108521;-72
2023/07/07 13:26:21;;;;;;;;;;;32.30;77.50;;;;;;7339748;19;109297;-72
2023/07/07 13:28:48;;;;;;;;;;;32.60;74.90;;;;;;7356473;19;110393;-85
2023/07/07 13:31:16;;;;;;;;;;;32.70;71.00;;;;;;7367734;19;109603;-85
2023/07/07 13:33:43;;;;;;;;;;;32.70;71.20;;;;;;7372598;19;109126;-85
2023/07/07 13:36:10;;;;;;;;;;;32.70;70.90;;;;;;7374528;19;110073;-86
2023/07/07 13:38:40;;;;;;;;;;;32.80;71.50;;;;;;7372054;19;108794;-87
2023/07/07 13:41:10;;;;;;;;;;;32.90;74.60;;;;;;7367554;19;112472;-85
2023/07/07 13:43:42;;;;;;;;;;;33.10;72.60;;;;;;7369390;19;108231;-86
2023/07/07 13:46:18;;;;;;;;;;;33.20;70.00;;;;;;7367229;19;108012;-85
2023/07/07 13:48:48;;;;;;;;;;;33.10;67.80;;;;;;7366512;19;109620;-86
2023/07/07 13:51:19;;;;;;;;;;;33.00;66.20;;;;;;7368736;19;109762;-90
2023/07/07 13:53:46;;;;;;;;;;;33.10;69.60;;;;;;7366679;19;109312;-89
2023/07/07 13:56:13;;;;;;;;;;;33.20;66.10;;;;;;7373731;19;113023;-84
2023/07/07 13:58:42;;;;;;;;;;;33.20;71.10;;;;;;7369031;19;109095;-83
2023/07/07 14:01:17;;;;;;;;;;;33.40;70.80;;;;;;7365630;19;108557;-83
2023/07/07 14:03:46;;;;;;;;;;;33.50;68.60;;;;;;7367547;19;107925;-88
2023/07/07 14:06:14;;;;;;;;;;;33.40;67.20;;;;;;7374383;19;112059;-88
2023/07/07 14:08:42;;;;;;;;;;;33.40;69.20;;;;;;7365894;19;112947;-88
2023/07/07 14:11:16;;;;;;;;;;;33.60;70.90;;;;;;7368992;19;108018;-85
2023/07/07 14:13:43;;;;;;;;;;;33.80;67.60;;;;;;7371952;19;109648;-88
2023/07/07 14:16:16;;;;;;;;;;;34.10;68.00;;;;;;7371812;19;109493;-86
2023/07/07 14:18:47;;;;;;;;;;;34.20;66.20;;;;;;7348724;19;108153;-88
2023/07/07 14:21:18;;;;;;;;;;;34.20;65.80;;;;;;7332036;19;110278;-87
2023/07/07 14:23:46;;;;;;;;;;;34.10;67.00;;;;;;7337854;19;108582;-88
2023/07/07 14:26:19;;;;;;;;;;;34.40;67.20;;;;;;7334941;19;111521;-87